Aviation Digital Data Service (ADDS)

Output produced by TAFs form (2222 UTC 12 February 2016)
found at http://aviationweather.gov/adds/tafs/
 
KGUP 121740Z 1218/1318 VRB03KT P6SM SKC 
     TEMPO 1221/1301 02006KT